ΕΜΥ, Εθνική Μετεωρολογική Υπηρεσία - Δελτία Καιρού, Προγνώσεις

ΑΕΡΟΝΑΥΤΙΛΙΑ

GREEK AIRPORTS CODES

TAF LGKV 261100Z 2612/2712 VRB03KT 9999 SCT025 BECMG 2618/2620 06015KT BECMG 2709/2711 SCT025 BKN080=

EUROPEAN AIRPORTS CODES